createdAt,value
2023-03-06T00:00:24.676Z,18.70
2023-03-06T00:03:12.841Z,16.50
2023-03-06T00:05:46.593Z,18.30
2023-03-06T00:08:14.725Z,17.60
2023-03-06T00:10:42.702Z,19.50
2023-03-06T00:13:13.064Z,16.20
2023-03-06T00:15:41.396Z,19.10
2023-03-06T00:18:09.306Z,17.80
2023-03-06T00:20:39.278Z,19.20
2023-03-06T00:23:07.654Z,16.40
2023-03-06T00:25:38.994Z,20.20
2023-03-06T00:28:06.992Z,17.60
2023-03-06T00:30:37.439Z,18.90
2023-03-06T00:33:05.189Z,15.70
2023-03-06T00:35:33.289Z,19.30
2023-03-06T00:38:04.007Z,17.40
2023-03-06T00:40:34.048Z,16.60
2023-03-06T00:43:02.087Z,17.10
2023-03-06T00:45:30.325Z,17.70
2023-03-06T00:47:58.546Z,19.60
2023-03-06T00:50:26.662Z,20.70
2023-03-06T00:52:55.197Z,15.00
2023-03-06T00:55:25.888Z,19.30
2023-03-06T00:57:53.907Z,15.00
2023-03-06T01:00:21.921Z,16.80
2023-03-06T01:02:50.856Z,15.90
2023-03-06T01:05:18.996Z,16.20
2023-03-06T01:07:47.221Z,14.60
2023-03-06T01:10:15.439Z,15.30
2023-03-06T01:12:43.802Z,14.30
2023-03-06T01:15:12.824Z,14.70
2023-03-06T01:17:41.228Z,13.10
2023-03-06T01:20:12.876Z,14.50
2023-03-06T01:22:43.315Z,15.10
2023-03-06T01:25:11.960Z,16.40
2023-03-06T01:27:40.028Z,13.30
2023-03-06T01:32:39.319Z,21.00
2023-03-06T01:35:08.713Z,25.00
2023-03-06T01:37:37.248Z,22.30
2023-03-06T01:40:05.533Z,13.50
2023-03-06T01:42:33.432Z,18.80
2023-03-06T01:45:02.986Z,15.10
2023-03-06T01:47:30.786Z,16.70
2023-03-06T01:50:00.680Z,12.30
2023-03-06T01:52:30.867Z,14.70
2023-03-06T01:55:18.861Z,22.40
2023-03-06T01:57:48.074Z,21.30
2023-03-06T02:00:17.945Z,14.30
2023-03-06T02:02:50.112Z,15.80
2023-03-06T02:05:18.179Z,13.70
2023-03-06T02:07:47.232Z,15.50
2023-03-06T02:10:16.067Z,14.80
2023-03-06T02:12:44.452Z,18.30
2023-03-06T02:15:13.546Z,16.70
2023-03-06T02:17:42.290Z,16.50
2023-03-06T02:20:22.691Z,14.20
2023-03-06T02:22:58.418Z,10.60
2023-03-06T02:25:29.382Z,12.20
2023-03-06T02:27:57.832Z,12.80
2023-03-06T02:30:29.641Z,11.50
2023-03-06T02:32:58.035Z,14.00
2023-03-06T02:35:27.383Z,15.40
2023-03-06T02:37:57.323Z,16.20
2023-03-06T02:40:25.921Z,20.70
2023-03-06T02:42:56.556Z,21.60
2023-03-06T02:45:34.312Z,22.60
2023-03-06T02:48:02.524Z,19.10
2023-03-06T02:50:31.084Z,16.60
2023-03-06T02:52:59.356Z,18.00
2023-03-06T02:55:30.784Z,14.80
2023-03-06T02:57:58.868Z,17.00
2023-03-06T03:00:27.259Z,15.40
2023-03-06T03:02:55.444Z,15.00
2023-03-06T03:05:24.000Z,13.50
2023-03-06T03:07:57.518Z,13.80
2023-03-06T03:10:26.084Z,8.90
2023-03-06T03:12:54.064Z,11.60
2023-03-06T03:15:22.468Z,10.70
2023-03-06T03:17:50.531Z,9.50
2023-03-06T03:20:21.744Z,12.60
2023-03-06T03:22:51.289Z,11.20
2023-03-06T03:25:19.988Z,10.70
2023-03-06T03:27:50.694Z,11.90
2023-03-06T03:30:18.898Z,11.10
2023-03-06T03:32:47.035Z,7.50
2023-03-06T03:35:15.341Z,12.70
2023-03-06T03:37:43.460Z,12.00
2023-03-06T03:40:11.900Z,11.10
2023-03-06T03:42:39.909Z,10.60
2023-03-06T03:45:08.610Z,5.60
2023-03-06T03:47:36.899Z,12.60
2023-03-06T03:50:05.194Z,13.10
2023-03-06T03:52:35.705Z,9.60
2023-03-06T03:55:04.394Z,15.60
2023-03-06T03:57:32.970Z,13.70
2023-03-06T04:00:01.680Z,15.70
2023-03-06T04:02:42.225Z,16.40
2023-03-06T04:05:23.051Z,16.20
2023-03-06T04:07:50.906Z,17.50
2023-03-06T04:10:19.782Z,16.40
2023-03-06T04:12:48.127Z,19.90
2023-03-06T04:15:16.972Z,16.60
2023-03-06T04:17:46.322Z,11.00
2023-03-06T04:20:16.534Z,12.00
2023-03-06T04:22:45.225Z,22.80
2023-03-06T04:25:13.686Z,20.50
2023-03-06T04:27:41.984Z,18.80
2023-03-06T04:30:10.206Z,14.10
2023-03-06T04:32:38.257Z,15.70
2023-03-06T04:35:06.534Z,11.00
2023-03-06T04:37:38.737Z,11.60
2023-03-06T04:40:09.330Z,15.50
2023-03-06T04:42:37.638Z,12.90
2023-03-06T04:45:06.073Z,13.40
2023-03-06T04:47:34.092Z,15.10
2023-03-06T04:50:02.163Z,14.90
2023-03-06T04:52:33.007Z,14.70
2023-03-06T04:55:04.167Z,23.30
2023-03-06T04:57:32.053Z,21.80
2023-03-06T04:59:59.886Z,23.90
2023-03-06T05:02:30.248Z,20.10
2023-03-06T05:04:58.258Z,20.00
2023-03-06T05:07:26.537Z,30.70
2023-03-06T05:09:54.711Z,25.70
2023-03-06T05:12:22.732Z,18.70
2023-03-06T05:14:50.566Z,31.30
2023-03-06T05:17:18.572Z,21.80
2023-03-06T05:19:46.640Z,18.80
2023-03-06T05:22:14.759Z,14.20
2023-03-06T05:24:42.567Z,9.70
2023-03-06T05:27:10.600Z,11.90
2023-03-06T05:29:41.585Z,11.90
2023-03-06T05:32:12.214Z,13.60
2023-03-06T05:34:40.275Z,10.90
2023-03-06T05:39:39.088Z,14.60
2023-03-06T05:42:07.170Z,11.90
2023-03-06T05:44:42.452Z,14.60
2023-03-06T05:47:13.148Z,17.80
2023-03-06T05:49:41.009Z,16.80
2023-03-06T05:52:09.884Z,20.40
2023-03-06T05:54:37.947Z,22.70
2023-03-06T05:57:06.148Z,23.10
2023-03-06T05:59:34.314Z,19.20
2023-03-06T06:02:05.392Z,15.20
2023-03-06T06:04:33.533Z,17.60
2023-03-06T06:07:01.501Z,14.00
2023-03-06T06:09:29.569Z,15.30
2023-03-06T06:11:58.936Z,14.00
2023-03-06T06:14:27.264Z,15.60
2023-03-06T06:17:02.255Z,19.70
2023-03-06T06:19:30.575Z,16.30
2023-03-06T06:21:58.673Z,20.60
2023-03-06T06:24:27.096Z,26.10
2023-03-06T06:26:56.213Z,27.90
2023-03-06T06:29:24.548Z,22.00
2023-03-06T06:31:52.398Z,27.10
2023-03-06T06:34:21.291Z,26.70
2023-03-06T06:36:51.586Z,23.20
2023-03-06T06:39:22.322Z,22.70
2023-03-06T06:42:05.521Z,19.90
2023-03-06T06:44:39.582Z,17.70
2023-03-06T06:47:25.114Z,41.80
2023-03-06T06:49:54.649Z,34.60
2023-03-06T06:52:23.955Z,25.80
2023-03-06T06:54:55.195Z,12.60
2023-03-06T06:57:23.092Z,16.10
2023-03-06T06:59:53.385Z,14.50
2023-03-06T07:02:21.956Z,27.00
2023-03-06T07:05:02.953Z,21.90
2023-03-06T07:07:33.879Z,19.90
2023-03-06T07:10:01.975Z,21.50
2023-03-06T07:12:32.562Z,24.10
2023-03-06T07:15:00.753Z,21.70
2023-03-06T07:17:28.703Z,30.50
2023-03-06T07:19:56.773Z,23.70
2023-03-06T07:22:24.769Z,20.30
2023-03-06T07:24:52.675Z,29.70
2023-03-06T07:27:20.615Z,20.60
2023-03-06T07:29:48.606Z,18.90
2023-03-06T07:32:16.577Z,18.50
2023-03-06T07:34:45.444Z,14.60
2023-03-06T07:37:16.124Z,33.40
2023-03-06T07:39:44.177Z,40.00
2023-03-06T07:42:13.293Z,32.80
2023-03-06T07:44:46.811Z,25.40
2023-03-06T07:47:15.162Z,23.60
2023-03-06T07:49:42.890Z,20.30
2023-03-06T07:52:13.999Z,26.00
2023-03-06T07:54:42.293Z,28.00
2023-03-06T07:57:10.345Z,21.70
2023-03-06T07:59:38.343Z,20.20
2023-03-06T08:02:06.213Z,20.30
2023-03-06T08:04:36.588Z,19.50
2023-03-06T08:07:04.990Z,25.10
2023-03-06T08:09:33.955Z,40.80
2023-03-06T08:15:17.930Z,35.00
2023-03-06T08:17:45.928Z,32.40
2023-03-06T08:20:14.577Z,20.60
2023-03-06T08:22:42.679Z,23.30
2023-03-06T08:25:11.712Z,20.10
2023-03-06T08:27:39.680Z,23.20
2023-03-06T08:30:08.617Z,31.20
2023-03-06T08:32:37.379Z,33.60
2023-03-06T08:35:05.807Z,22.60
2023-03-06T08:37:33.939Z,18.10
2023-03-06T08:40:04.741Z,17.00
2023-03-06T08:42:32.847Z,18.20
2023-03-06T08:45:00.790Z,20.50
2023-03-06T08:47:28.841Z,21.00
2023-03-06T08:49:56.956Z,20.30
2023-03-06T08:52:25.672Z,16.40
2023-03-06T08:54:53.841Z,16.60
2023-03-06T08:57:22.010Z,16.50
2023-03-06T08:59:50.090Z,18.70
2023-03-06T09:02:17.906Z,15.50
2023-03-06T09:04:45.775Z,15.10
2023-03-06T09:07:13.784Z,16.90
2023-03-06T09:09:42.153Z,13.80
2023-03-06T09:12:10.274Z,14.10
2023-03-06T09:14:38.304Z,16.40
2023-03-06T09:17:06.446Z,16.30
2023-03-06T09:19:34.347Z,15.60
2023-03-06T09:22:02.225Z,17.20
2023-03-06T09:24:37.774Z,33.70
2023-03-06T09:27:05.945Z,26.90
2023-03-06T09:29:34.155Z,20.10
2023-03-06T09:32:02.064Z,14.20
2023-03-06T09:34:30.306Z,12.90
2023-03-06T09:36:58.296Z,16.90
2023-03-06T09:39:33.772Z,15.40
2023-03-06T09:42:02.060Z,12.80
2023-03-06T09:44:33.949Z,12.20
2023-03-06T09:47:24.298Z,17.80
2023-03-06T09:50:04.757Z,15.30
2023-03-06T09:52:35.903Z,21.60
2023-03-06T09:57:45.661Z,21.20
2023-03-06T10:00:15.310Z,11.40
2023-03-06T10:02:43.596Z,13.70
2023-03-06T10:05:21.585Z,19.60
2023-03-06T10:07:55.903Z,19.20
2023-03-06T10:10:29.350Z,24.10
2023-03-06T10:13:18.602Z,18.70
2023-03-06T10:15:58.258Z,18.60
2023-03-06T10:18:29.553Z,14.50
2023-03-06T10:21:18.480Z,15.30
2023-03-06T10:24:00.121Z,19.30
2023-03-06T10:26:38.353Z,14.00
2023-03-06T10:29:12.677Z,19.50
2023-03-06T10:31:54.123Z,15.70
2023-03-06T10:34:29.267Z,14.40
2023-03-06T10:37:05.554Z,17.60
2023-03-06T10:39:36.766Z,16.30
2023-03-06T10:42:07.862Z,17.70
2023-03-06T10:44:38.525Z,14.00
2023-03-06T10:47:27.736Z,13.60
2023-03-06T10:50:02.747Z,11.40
2023-03-06T10:52:35.414Z,10.50
2023-03-06T10:55:24.432Z,11.80
2023-03-06T10:58:16.174Z,15.00
2023-03-06T11:01:00.353Z,17.60
2023-03-06T11:03:28.831Z,11.80
2023-03-06T11:06:13.388Z,14.40
2023-03-06T11:08:47.283Z,13.90
2023-03-06T11:11:36.770Z,11.80
2023-03-06T11:14:13.360Z,12.80
2023-03-06T11:16:51.945Z,15.60
2023-03-06T11:19:28.236Z,12.90
2023-03-06T11:22:02.400Z,15.00
2023-03-06T11:24:38.788Z,14.00
2023-03-06T11:27:16.383Z,17.10
2023-03-06T11:29:46.390Z,15.80
2023-03-06T11:32:44.878Z,21.40
2023-03-06T11:35:20.106Z,14.00
2023-03-06T11:37:54.509Z,12.70
2023-03-06T11:40:31.053Z,13.80
2023-03-06T11:43:18.063Z,16.90
2023-03-06T11:45:47.826Z,14.00
2023-03-06T11:48:34.977Z,15.00
2023-03-06T11:51:06.919Z,22.30
2023-03-06T11:53:36.829Z,12.90
2023-03-06T11:56:23.030Z,16.50
2023-03-06T11:58:58.164Z,18.50
2023-03-06T12:01:49.634Z,61.80
2023-03-06T12:04:59.564Z,19.80
2023-03-06T12:07:31.228Z,22.10
2023-03-06T12:10:14.358Z,16.40
2023-03-06T12:13:07.912Z,35.70
2023-03-06T12:15:58.177Z,31.60
2023-03-06T12:18:40.799Z,28.10
2023-03-06T12:21:17.616Z,20.20
2023-03-06T12:23:51.633Z,31.20
2023-03-06T12:26:39.005Z,31.50
2023-03-06T12:29:42.306Z,23.10
2023-03-06T12:32:14.933Z,27.00
2023-03-06T12:34:49.422Z,62.30
2023-03-06T12:37:36.679Z,51.10
2023-03-06T12:40:11.052Z,44.30
2023-03-06T12:42:39.215Z,55.10
2023-03-06T12:45:45.281Z,23.40
2023-03-06T12:48:42.571Z,23.80
2023-03-06T12:51:24.601Z,20.50
2023-03-06T12:53:56.071Z,30.80
2023-03-06T12:56:24.496Z,25.00
2023-03-06T12:59:02.714Z,26.60
2023-03-06T13:01:30.800Z,68.90
2023-03-06T13:04:01.778Z,48.10
2023-03-06T13:06:39.187Z,40.50
2023-03-06T13:09:31.568Z,47.60
2023-03-06T13:12:18.628Z,21.80
2023-03-06T13:14:54.076Z,37.50
2023-03-06T13:17:33.977Z,32.00
2023-03-06T13:20:11.241Z,42.10
2023-03-06T13:22:43.157Z,36.60
2023-03-06T13:25:17.306Z,34.70
2023-03-06T13:28:14.623Z,39.60
2023-03-06T13:30:46.068Z,37.70
2023-03-06T13:33:37.261Z,70.70
2023-03-06T13:36:23.345Z,36.50
2023-03-06T13:38:56.161Z,26.00
2023-03-06T13:41:44.596Z,24.50
2023-03-06T13:44:28.552Z,21.40
2023-03-06T13:46:59.823Z,49.30
2023-03-06T13:49:31.242Z,43.00
2023-03-06T13:52:05.286Z,35.20
2023-03-06T13:54:36.466Z,43.40
2023-03-06T14:00:14.859Z,72.60
2023-03-06T14:02:55.812Z,21.60
2023-03-06T14:05:35.794Z,63.60
2023-03-06T14:08:14.943Z,33.70
2023-03-06T14:10:58.890Z,42.70
2023-03-06T14:13:41.862Z,32.50
2023-03-06T14:16:23.353Z,90.90
2023-03-06T14:18:52.717Z,37.80
2023-03-06T14:21:53.533Z,42.80
2023-03-06T14:24:27.318Z,41.30
2023-03-06T14:27:05.663Z,29.30
2023-03-06T14:29:56.732Z,37.90
2023-03-06T14:32:30.382Z,28.70
2023-03-06T14:35:15.013Z,42.10
2023-03-06T14:37:55.605Z,26.90
2023-03-06T14:40:29.283Z,46.40
2023-03-06T14:43:17.522Z,26.30
2023-03-06T14:45:59.445Z,16.50
2023-03-06T14:48:38.597Z,27.80
2023-03-06T14:51:07.971Z,113.80
2023-03-06T14:53:36.075Z,75.10
2023-03-06T14:56:07.982Z,24.60
2023-03-06T14:58:40.873Z,28.90
2023-03-06T15:01:10.921Z,24.90
2023-03-06T15:03:49.676Z,29.30
2023-03-06T15:06:20.765Z,28.10
2023-03-06T15:08:52.221Z,17.40
2023-03-06T15:11:20.475Z,21.90
2023-03-06T15:14:00.137Z,59.30
2023-03-06T15:16:30.258Z,106.80
2023-03-06T15:19:05.523Z,43.60
2023-03-06T15:21:37.953Z,34.20
2023-03-06T15:24:29.177Z,35.40
2023-03-06T15:27:00.578Z,18.40
2023-03-06T15:29:28.555Z,22.60
2023-03-06T15:32:15.428Z,70.40
2023-03-06T15:34:46.427Z,45.00
2023-03-06T15:37:28.177Z,26.90
2023-03-06T15:40:09.498Z,23.80
2023-03-06T15:42:37.661Z,27.10
2023-03-06T15:45:16.514Z,58.00
2023-03-06T15:47:48.374Z,29.70
2023-03-06T15:50:26.354Z,22.70
2023-03-06T15:52:54.519Z,20.80
2023-03-06T15:55:27.517Z,22.80
2023-03-06T15:57:59.935Z,25.20
2023-03-06T16:00:29.978Z,31.70
2023-03-06T16:03:11.677Z,32.90
2023-03-06T16:05:42.197Z,20.70
2023-03-06T16:08:14.950Z,33.40
2023-03-06T16:10:52.506Z,20.90
2023-03-06T16:16:55.838Z,121.20
2023-03-06T16:19:27.821Z,125.40
2023-03-06T16:22:04.138Z,99.00
2023-03-06T16:24:31.814Z,57.40
2023-03-06T16:27:00.022Z,76.60
2023-03-06T16:29:35.282Z,57.40
2023-03-06T16:32:04.827Z,42.50
2023-03-06T16:34:31.783Z,51.20
2023-03-06T16:36:58.313Z,44.00
2023-03-06T16:39:25.193Z,36.60
2023-03-06T16:41:52.173Z,40.90
2023-03-06T16:44:19.369Z,36.40
2023-03-06T16:46:48.756Z,48.90
2023-03-06T16:49:16.511Z,37.70
2023-03-06T16:51:43.539Z,52.00
2023-03-06T16:54:13.232Z,131.50
2023-03-06T16:56:47.116Z,75.40
2023-03-06T16:59:14.070Z,45.60
2023-03-06T17:01:43.550Z,69.90
2023-03-06T17:04:10.243Z,47.90
2023-03-06T17:06:37.365Z,49.60
2023-03-06T17:09:15.754Z,48.70
2023-03-06T17:14:59.738Z,54.80
2023-03-06T17:17:28.117Z,47.40
2023-03-06T17:19:59.075Z,46.00
2023-03-06T17:22:27.809Z,62.00
2023-03-06T17:25:06.869Z,42.30
2023-03-06T17:30:06.059Z,40.20
2023-03-06T17:32:34.659Z,35.60
2023-03-06T17:35:02.679Z,30.20
2023-03-06T17:37:31.971Z,32.50
2023-03-06T17:40:00.293Z,33.00
2023-03-06T17:42:31.015Z,26.30
2023-03-06T17:44:59.099Z,25.60
2023-03-06T17:47:27.058Z,35.90
2023-03-06T17:49:55.336Z,35.30
2023-03-06T17:52:23.609Z,29.20
2023-03-06T17:54:51.984Z,30.10
2023-03-06T17:57:19.833Z,24.90
2023-03-06T17:59:48.845Z,44.30
2023-03-06T18:02:22.133Z,64.30
2023-03-06T18:04:50.485Z,65.60
2023-03-06T18:07:18.689Z,50.30
2023-03-06T18:09:54.038Z,28.20
2023-03-06T18:12:22.209Z,92.30
2023-03-06T18:14:50.905Z,86.50
2023-03-06T18:17:24.547Z,154.50
2023-03-06T18:19:52.679Z,178.70
2023-03-06T18:22:20.981Z,126.10
2023-03-06T18:24:49.197Z,95.80
2023-03-06T18:27:17.511Z,72.40
2023-03-06T18:29:45.549Z,57.60
2023-03-06T18:32:14.390Z,58.40
2023-03-06T18:34:42.639Z,53.80
2023-03-06T18:37:11.219Z,69.40
2023-03-06T18:39:39.498Z,51.90
2023-03-06T18:42:07.619Z,75.40
2023-03-06T18:44:35.967Z,68.70
2023-03-06T18:47:04.219Z,85.40
2023-03-06T18:49:35.917Z,64.80
2023-03-06T18:52:09.931Z,65.40
2023-03-06T18:54:38.450Z,49.20
2023-03-06T18:57:06.544Z,49.20
2023-03-06T18:59:34.843Z,49.50
2023-03-06T19:02:06.993Z,48.50
2023-03-06T19:04:36.316Z,34.40
2023-03-06T19:07:07.087Z,35.30
2023-03-06T19:09:37.902Z,29.80
2023-03-06T19:12:06.469Z,26.80
2023-03-06T19:14:36.398Z,29.90
2023-03-06T19:17:04.438Z,30.60
2023-03-06T19:19:32.601Z,31.30
2023-03-06T19:22:01.190Z,32.30
2023-03-06T19:24:29.347Z,38.30
2023-03-06T19:26:57.536Z,45.10
2023-03-06T19:29:25.550Z,42.90
2023-03-06T19:31:56.511Z,43.00
2023-03-06T19:34:27.972Z,37.90
2023-03-06T19:36:55.960Z,33.20
2023-03-06T19:39:24.451Z,28.20
2023-03-06T19:41:52.635Z,31.20
2023-03-06T19:44:24.032Z,27.90
2023-03-06T19:46:59.831Z,28.70
2023-03-06T19:49:39.926Z,30.10
2023-03-06T19:52:08.159Z,31.60
2023-03-06T19:54:39.412Z,53.00
2023-03-06T19:57:07.596Z,41.20
2023-03-06T19:59:35.575Z,33.80
2023-03-06T20:02:03.615Z,33.40
2023-03-06T20:04:34.833Z,31.10
2023-03-06T20:07:04.985Z,27.70
2023-03-06T20:09:33.608Z,25.40
2023-03-06T20:12:01.653Z,24.00
2023-03-06T20:14:29.830Z,27.80
2023-03-06T20:16:58.507Z,35.90
2023-03-06T20:19:26.962Z,38.20
2023-03-06T20:21:57.703Z,28.80
2023-03-06T20:24:26.112Z,25.80
2023-03-06T20:26:58.661Z,39.10
2023-03-06T20:29:35.790Z,36.50
2023-03-06T20:32:04.067Z,26.90
2023-03-06T20:34:32.481Z,26.60
2023-03-06T20:37:00.594Z,31.90
2023-03-06T20:39:32.057Z,29.20
2023-03-06T20:42:11.381Z,27.60
2023-03-06T20:44:44.772Z,30.40
2023-03-06T20:47:14.979Z,31.60
2023-03-06T20:49:43.144Z,28.20
2023-03-06T20:52:11.221Z,30.80
2023-03-06T20:54:42.320Z,31.00
2023-03-06T20:57:13.134Z,33.50
2023-03-06T20:59:50.269Z,32.60
2023-03-06T21:02:20.553Z,35.10
2023-03-06T21:04:48.503Z,30.90
2023-03-06T21:07:28.958Z,33.40
2023-03-06T21:09:57.211Z,30.60
2023-03-06T21:12:34.494Z,35.10
2023-03-06T21:15:02.429Z,33.70
2023-03-06T21:17:30.470Z,34.70
2023-03-06T21:19:58.816Z,32.50
2023-03-06T21:22:30.294Z,33.40
2023-03-06T21:24:58.332Z,29.60
2023-03-06T21:27:27.850Z,33.00
2023-03-06T21:30:02.441Z,31.60
2023-03-06T21:32:33.364Z,30.60
2023-03-06T21:35:06.664Z,33.50
2023-03-06T21:37:40.116Z,36.90
2023-03-06T21:40:11.033Z,43.40
2023-03-06T21:42:39.138Z,44.60
2023-03-06T21:45:10.555Z,41.00
2023-03-06T21:50:24.849Z,39.70
2023-03-06T21:53:00.318Z,38.80
2023-03-06T21:55:30.603Z,44.30
2023-03-06T21:57:58.670Z,37.20
2023-03-06T22:00:26.844Z,43.00
2023-03-06T22:02:54.967Z,34.50
2023-03-06T22:05:39.398Z,34.20
2023-03-06T22:08:07.761Z,30.30
2023-03-06T22:10:41.524Z,34.20
2023-03-06T22:13:20.776Z,28.70
2023-03-06T22:15:51.845Z,30.90
2023-03-06T22:18:20.228Z,33.60
2023-03-06T22:20:58.398Z,38.90
2023-03-06T22:23:28.955Z,38.90
2023-03-06T22:26:00.806Z,32.80
2023-03-06T22:28:31.211Z,38.70
2023-03-06T22:31:05.782Z,42.30
2023-03-06T22:33:33.981Z,42.80
2023-03-06T22:36:07.816Z,42.30
2023-03-06T22:38:42.217Z,41.30
2023-03-06T22:41:20.852Z,40.00
2023-03-06T22:43:49.065Z,38.50
2023-03-06T22:46:22.696Z,37.10
2023-03-06T22:48:50.974Z,40.50
2023-03-06T22:51:21.589Z,40.70
2023-03-06T22:53:54.912Z,42.10
2023-03-06T22:56:30.121Z,48.00
2023-03-06T22:58:58.421Z,53.10
2023-03-06T23:01:28.392Z,56.00
2023-03-06T23:03:58.638Z,43.60
2023-03-06T23:06:28.320Z,46.70
2023-03-06T23:08:58.038Z,40.00
2023-03-06T23:11:27.903Z,45.00
2023-03-06T23:14:15.737Z,38.40
2023-03-06T23:17:02.468Z,37.00
2023-03-06T23:19:51.562Z,36.40
2023-03-06T23:22:38.050Z,40.50
2023-03-06T23:25:25.094Z,41.20
2023-03-06T23:27:56.123Z,51.40
2023-03-06T23:30:27.046Z,45.00
2023-03-06T23:32:58.243Z,38.20
2023-03-06T23:35:26.806Z,45.40
2023-03-06T23:38:03.719Z,36.70
2023-03-06T23:40:33.487Z,44.70
2023-03-06T23:43:03.993Z,34.40
2023-03-06T23:48:06.060Z,40.10
2023-03-06T23:50:44.093Z,36.60
2023-03-06T23:53:32.306Z,40.30
2023-03-06T23:56:03.001Z,43.80
2023-03-06T23:58:34.513Z,43.00
